Time;durP1;ratioP1;P1;durP2;ratioP2;P2;SDS_P1;SDS_P2;PMS_P1;PMS_P2;Temp;Humidity;BMP_temperature;BMP_pressure;BME280_temperature;BME280_humidity;BME280_pressure;Samples;Min_cycle;Max_cycle;Signal;HPM_P1;HPM_P2
2023/09/22 00:00:10;;;;;;;;;1.00;1.00;;;;;-143.90;70.12;73531.03;4986771;28;102425;-71
2023/09/22 00:02:38;;;;;;;;;2.00;2.00;;;;;-143.90;69.43;73547.56;4982816;28;104206;-71
2023/09/22 00:05:07;;;;;;;;;1.00;1.00;;;;;-143.90;70.64;73547.56;4985410;28;103480;-72
2023/09/22 00:07:34;;;;;;;;;0.00;0.00;;;;;-143.90;70.83;73553.78;4980401;28;102406;-72
2023/09/22 00:10:01;;;;;;;;;0.33;0.33;;;;;-143.90;70.59;73557.91;4981435;28;102364;-71
2023/09/22 00:12:31;;;;;;;;;1.00;1.00;;;;;-143.90;70.49;73553.78;4985141;28;103438;-71
2023/09/22 00:14:59;;;;;;;;;0.00;0.00;;;;;-143.90;70.80;73553.78;4987681;28;102318;-72
2023/09/22 00:17:27;;;;;;;;;2.67;1.33;;;;;-143.90;71.11;73557.91;4985685;28;102268;-72
2023/09/22 00:19:54;;;;;;;;;1.00;0.33;;;;;-143.90;71.27;73559.97;4978913;28;103427;-72
2023/09/22 00:22:22;;;;;;;;;2.00;1.00;;;;;-143.90;72.26;73553.78;4980760;28;105111;-72
2023/09/22 00:24:50;;;;;;;;;3.00;3.00;;;;;-143.90;71.62;73555.84;5005180;27;102589;-71
2023/09/22 00:27:17;;;;;;;;;3.00;2.33;;;;;-143.90;71.77;73559.97;4982023;28;102704;-72
2023/09/22 00:29:43;;;;;;;;;2.67;2.33;;;;;-143.90;71.56;73557.91;4988570;27;102230;-73
2023/09/22 00:32:11;;;;;;;;;3.00;3.00;;;;;-143.90;71.64;73547.56;4988887;27;104053;-73
2023/09/22 00:34:39;;;;;;;;;3.67;3.00;;;;;-143.90;71.80;73549.63;4984147;27;102291;-72
2023/09/22 00:37:06;;;;;;;;;3.67;3.00;;;;;-143.90;71.95;73551.72;4984700;28;102657;-72
2023/09/22 00:39:33;;;;;;;;;4.00;3.67;;;;;-143.90;71.49;73549.63;4986473;28;102435;-73
2023/09/22 00:42:01;;;;;;;;;3.00;2.00;;;;;-143.90;72.19;73539.31;4982729;28;105533;-72
2023/09/22 00:44:29;;;;;;;;;2.00;2.00;;;;;-143.90;72.32;73537.25;4986859;27;102355;-73
2023/09/22 00:46:58;;;;;;;;;1.00;1.00;;;;;-143.90;72.21;73531.03;4986029;27;102211;-73
2023/09/22 00:49:25;;;;;;;;;2.00;2.00;;;;;-143.90;71.67;73526.91;4991330;27;101934;-72
2023/09/22 00:51:52;;;;;;;;;2.33;1.00;;;;;-143.90;71.99;73522.78;4991560;27;105509;-72
2023/09/22 00:54:19;;;;;;;;;1.00;1.00;;;;;-143.90;71.81;73518.66;4971551;28;102545;-73
2023/09/22 00:56:47;;;;;;;;;1.00;1.00;;;;;-143.90;71.81;73514.50;4987134;28;102060;-73
2023/09/22 00:59:15;;;;;;;;;1.00;1.00;;;;;-143.90;72.11;73510.38;4988835;28;101966;-72
2023/09/22 01:01:43;;;;;;;;;2.00;2.00;;;;;-143.90;71.87;73506.25;4987568;28;104153;-73
2023/09/22 01:04:11;;;;;;;;;1.67;1.00;;;;;-143.90;71.69;73497.97;4986439;28;103597;-72
2023/09/22 01:06:38;;;;;;;;;2.67;2.67;;;;;-143.90;71.26;73512.44;4967583;28;102107;-72
2023/09/22 01:09:06;;;;;;;;;6.33;6.00;;;;;-143.90;71.64;73504.19;4982900;28;102251;-72
2023/09/22 01:11:34;;;;;;;;;3.33;3.00;;;;;-143.90;71.76;73497.97;4989719;28;104565;-72
2023/09/22 01:14:02;;;;;;;;;3.00;3.00;;;;;-143.90;72.41;73497.97;4988654;28;102481;-71
2023/09/22 01:16:29;;;;;;;;;2.00;2.00;;;;;-143.90;72.29;73495.91;4990055;27;102674;-72
2023/09/22 01:18:57;;;;;;;;;2.00;1.00;;;;;-143.90;72.46;73485.56;4991745;27;102170;-72
2023/09/22 01:21:34;;;;;;;;;1.67;1.67;;;;;-143.90;71.65;73479.38;4989493;28;103577;-72
2023/09/22 01:24:00;;;;;;;;;2.00;2.00;;;;;-143.90;71.80;73469.03;4987046;27;102175;-72
2023/09/22 01:26:27;;;;;;;;;1.33;1.33;;;;;-143.90;71.56;73460.78;4989412;27;101994;-73
2023/09/22 01:28:54;;;;;;;;;1.00;1.00;;;;;-143.90;71.00;73462.84;4990224;28;102020;-73
2023/09/22 01:31:20;;;;;;;;;1.00;1.00;;;;;-143.90;70.89;73460.78;4990073;27;104378;-73
2023/09/22 01:33:47;;;;;;;;;0.00;0.00;;;;;-143.90;70.66;73454.59;4992816;27;102217;-73
2023/09/22 01:36:14;;;;;;;;;0.00;0.00;;;;;-143.90;71.18;73462.84;4988970;28;102353;-73
2023/09/22 01:38:41;;;;;;;;;1.33;1.33;;;;;-143.90;70.56;73460.78;4990902;28;102357;-73
2023/09/22 01:41:11;;;;;;;;;3.00;3.00;;;;;-143.90;71.14;73464.91;4989711;27;104965;-72
2023/09/22 01:43:38;;;;;;;;;2.33;2.00;;;;;-143.90;70.53;73469.03;4986649;28;102266;-73
2023/09/22 01:46:06;;;;;;;;;2.00;2.00;;;;;-143.90;70.70;73471.13;4989259;28;102398;-73
2023/09/22 01:48:33;;;;;;;;;3.33;3.00;;;;;-143.90;71.26;73475.25;4983348;28;102571;-71
2023/09/22 01:51:04;;;;;;;;;3.00;3.00;;;;;-143.90;71.14;73473.19;4988848;27;104120;-72
2023/09/22 01:53:31;;;;;;;;;4.00;4.00;;;;;-143.90;71.76;73479.38;4987139;27;102678;-72
2023/09/22 01:55:57;;;;;;;;;6.00;6.00;;;;;-143.90;72.49;73489.72;4989772;28;102122;-72
2023/09/22 01:58:24;;;;;;;;;1.33;1.00;;;;;-143.90;72.26;73481.44;4991659;27;102244;-73
2023/09/22 02:00:51;;;;;;;;;4.00;3.00;;;;;-143.90;72.56;73481.44;4988463;28;103710;-73
2023/09/22 02:03:18;;;;;;;;;3.33;3.00;;;;;-143.90;72.68;73485.56;4991224;27;102155;-71
2023/09/22 02:05:46;;;;;;;;;2.00;2.00;;;;;-143.90;72.86;73487.66;4989109;28;102256;-72
2023/09/22 02:08:13;;;;;;;;;3.00;3.00;;;;;-143.90;72.72;73481.44;4991971;28;102000;-72
2023/09/22 02:10:40;;;;;;;;;2.00;2.00;;;;;-143.90;72.55;73479.38;4983987;28;104074;-73
2023/09/22 02:13:08;;;;;;;;;4.67;4.33;;;;;-143.90;73.07;73481.44;4989962;27;102231;-73
2023/09/22 02:15:36;;;;;;;;;3.00;3.00;;;;;-143.90;72.63;73477.31;4991226;27;103033;-72
2023/09/22 02:18:04;;;;;;;;;2.00;2.00;;;;;-143.90;72.90;73493.84;4990399;28;103438;-73
2023/09/22 02:20:31;;;;;;;;;3.00;2.00;;;;;-143.90;74.15;73495.91;4988509;27;103720;-72
2023/09/22 02:22:58;;;;;;;;;4.00;2.00;;;;;-143.90;73.35;73491.78;4987652;28;102436;-73
2023/09/22 02:25:26;;;;;;;;;4.33;3.67;;;;;-143.90;73.55;73491.78;4985377;28;103572;-71
2023/09/22 02:27:54;;;;;;;;;4.00;3.67;;;;;-143.90;73.49;73491.78;4992379;28;102332;-72
2023/09/22 02:30:22;;;;;;;;;3.00;3.00;;;;;-143.90;72.99;73487.66;4988369;27;103889;-72
2023/09/22 02:32:50;;;;;;;;;1.00;1.00;;;;;-143.90;73.21;73485.56;4984221;28;102865;-72
2023/09/22 02:35:18;;;;;;;;;3.00;3.00;;;;;-143.90;73.26;73485.56;4991126;27;102037;-72
2023/09/22 02:37:45;;;;;;;;;3.00;2.67;;;;;-143.90;72.92;73483.50;4983432;27;102583;-72
2023/09/22 02:40:15;;;;;;;;;4.00;4.00;;;;;-143.90;73.29;73493.84;4987408;27;103167;-72
2023/09/22 02:42:44;;;;;;;;;4.33;3.33;;;;;-143.90;73.24;73497.97;4984262;27;101964;-72
2023/09/22 02:45:11;;;;;;;;;4.33;4.00;;;;;-143.90;74.20;73508.31;4991788;27;102546;-73
2023/09/22 02:47:40;;;;;;;;;3.33;3.00;;;;;-143.90;74.46;73510.38;4990384;28;101987;-73
2023/09/22 02:50:15;;;;;;;;;6.67;6.00;;;;;-143.90;74.91;73518.66;4985606;27;103989;-73
2023/09/22 02:52:42;;;;;;;;;4.00;4.00;;;;;-143.90;73.83;73520.72;4990661;27;102952;-73
2023/09/22 02:55:11;;;;;;;;;6.00;6.00;;;;;-143.90;74.63;73514.50;4988725;27;103128;-73
2023/09/22 02:57:39;;;;;;;;;5.00;4.00;;;;;-143.90;74.31;73518.66;4983847;27;103117;-73
2023/09/22 03:00:18;;;;;;;;;7.00;7.00;;;;;-143.90;74.62;73522.78;4986192;28;104100;-73
2023/09/22 03:02:47;;;;;;;;;8.00;7.00;;;;;-143.90;75.19;73539.31;4984992;27;102471;-72
2023/09/22 03:05:17;;;;;;;;;6.33;6.00;;;;;-143.90;75.89;73541.38;4989595;27;102321;-71
2023/09/22 03:07:52;;;;;;;;;8.00;7.00;;;;;-143.90;75.70;73541.38;4989120;27;102330;-71
2023/09/22 03:10:19;;;;;;;;;5.00;5.00;;;;;-143.90;76.52;73547.56;4982727;28;108702;-72
2023/09/22 03:12:51;;;;;;;;;5.00;5.00;;;;;-143.90;76.47;73545.50;4986711;28;102278;-72
2023/09/22 03:15:18;;;;;;;;;9.00;8.33;;;;;-143.90;75.89;73555.84;4985891;28;102199;-72
2023/09/22 03:17:45;;;;;;;;;5.33;5.33;;;;;-143.90;77.54;73557.91;4988097;28;102057;-72
2023/09/22 03:20:16;;;;;;;;;3.00;3.00;;;;;-143.90;76.92;73564.09;4984719;27;103574;-72
2023/09/22 03:22:43;;;;;;;;;5.00;5.00;;;;;-143.90;77.28;73568.25;4987654;28;102260;-72
2023/09/22 03:25:11;;;;;;;;;3.00;3.00;;;;;-143.90;76.83;73580.63;4985325;28;102501;-72
2023/09/22 03:27:38;;;;;;;;;5.00;3.00;;;;;-143.90;77.51;73582.72;4990990;27;101929;-72
2023/09/22 03:30:07;;;;;;;;;2.00;2.00;;;;;-143.90;77.37;73580.63;4988978;28;104267;-71
2023/09/22 03:32:35;;;;;;;;;1.00;1.00;;;;;-143.90;78.32;73578.56;4988455;28;102609;-71
2023/09/22 03:35:06;;;;;;;;;2.67;1.00;;;;;-143.90;77.98;73576.50;4987470;28;102489;-72
2023/09/22 03:37:33;;;;;;;;;1.00;1.00;;;;;-143.90;77.99;73574.44;4986606;27;101921;-72
2023/09/22 03:40:10;;;;;;;;;3.33;3.00;;;;;-143.90;77.86;73576.50;4983850;28;104122;-73
2023/09/22 03:42:37;;;;;;;;;1.00;1.00;;;;;-143.90;77.89;73584.78;4983549;27;101998;-72
2023/09/22 03:45:06;;;;;;;;;0.33;0.33;;;;;-143.90;78.05;73572.38;4982658;28;103305;-72
2023/09/22 03:47:33;;;;;;;;;1.00;1.00;;;;;-143.90;77.78;73570.31;4982434;28;103328;-73
2023/09/22 03:50:00;;;;;;;;;1.00;1.00;;;;;-143.90;77.94;73568.25;4985020;28;103648;-73
2023/09/22 03:52:26;;;;;;;;;1.67;1.67;;;;;-143.90;77.66;73564.09;4981442;27;102360;-73
2023/09/22 03:54:53;;;;;;;;;1.00;1.00;;;;;-143.90;77.62;73564.09;4984370;28;102231;-73
2023/09/22 03:57:20;;;;;;;;;3.00;2.00;;;;;-143.90;77.42;73576.50;4983510;28;102144;-73
2023/09/22 03:59:48;;;;;;;;;1.67;1.67;;;;;-143.90;78.23;73568.25;4981067;27;104107;-73
2023/09/22 04:02:15;;;;;;;;;5.00;4.00;;;;;-143.90;77.44;73568.25;4985285;28;102368;-72
2023/09/22 04:04:42;;;;;;;;;4.00;4.00;;;;;-143.90;77.40;73562.03;4983067;28;102088;-73
2023/09/22 04:07:09;;;;;;;;;5.00;5.00;;;;;-143.90;77.99;73568.25;4984919;28;102050;-72
2023/09/22 04:09:36;;;;;;;;;8.67;8.00;;;;;-143.90;78.07;73566.16;4988136;27;104165;-72
2023/09/22 04:12:03;;;;;;;;;5.00;5.00;;;;;-143.90;78.19;73568.25;4982443;28;102193;-72
2023/09/22 04:14:29;;;;;;;;;5.00;4.00;;;;;-143.90;77.99;73570.31;4988280;27;103579;-73
2023/09/22 04:16:56;;;;;;;;;5.67;5.00;;;;;-143.90;77.89;73568.25;4987556;28;102352;-72
2023/09/22 04:19:23;;;;;;;;;7.67;7.67;;;;;-143.90;77.94;73576.50;4984577;28;104039;-73
2023/09/22 04:21:54;;;;;;;;;5.00;5.00;;;;;-143.90;78.75;73580.63;4987944;28;102361;-73
2023/09/22 04:24:21;;;;;;;;;4.33;3.67;;;;;-143.90;78.94;73580.63;4982719;28;103854;-72
2023/09/22 04:26:49;;;;;;;;;6.00;6.00;;;;;-143.90;79.40;73590.97;4985099;28;102728;-72
2023/09/22 04:29:16;;;;;;;;;8.33;8.33;;;;;-143.90;78.93;73597.16;4985808;27;103225;-72
2023/09/22 04:31:45;;;;;;;;;10.33;9.33;;;;;-143.90;79.68;73595.09;4985209;28;101987;-72
2023/09/22 04:34:12;;;;;;;;;7.00;7.00;;;;;-143.90;79.96;73588.91;4982373;28;102473;-72
2023/09/22 04:36:40;;;;;;;;;4.33;4.33;;;;;-143.90;79.56;73584.78;4985458;27;102484;-72
2023/09/22 04:39:08;;;;;;;;;5.00;4.33;;;;;-143.90;79.72;73576.50;4987767;27;103986;-72
2023/09/22 04:41:35;;;;;;;;;7.50;7.25;;;;;-143.90;79.66;73572.38;4988113;28;102415;-72
2023/09/22 04:44:02;;;;;;;;;11.00;10.00;;;;;-143.90;79.63;73572.38;4987197;28;102181;-72
2023/09/22 04:46:28;;;;;;;;;6.33;5.33;;;;;-143.90;79.66;73555.84;4984632;28;102402;-72
2023/09/22 04:48:55;;;;;;;;;5.33;4.67;;;;;-143.90;78.92;73557.91;4984259;28;102903;-72
2023/09/22 04:51:22;;;;;;;;;3.00;3.00;;;;;-143.90;78.51;73541.38;4992254;28;102357;-72
2023/09/22 04:53:50;;;;;;;;;3.00;3.00;;;;;-143.90;78.40;73518.66;4986422;28;101927;-71
2023/09/22 04:56:16;;;;;;;;;2.67;2.67;;;;;-143.90;77.81;73514.50;4984598;28;102386;-71
2023/09/22 04:58:44;;;;;;;;;3.00;3.00;;;;;-143.90;77.91;73510.38;4983532;27;103705;-71
2023/09/22 05:01:11;;;;;;;;;2.00;2.00;;;;;-143.90;77.13;73502.09;4987786;28;102446;-72
2023/09/22 05:03:39;;;;;;;;;2.00;2.00;;;;;-143.90;77.32;73497.97;4984210;28;102909;-73
2023/09/22 05:06:09;;;;;;;;;4.67;3.00;;;;;-143.90;77.42;73495.91;4981566;28;102710;-72
2023/09/22 05:08:38;;;;;;;;;2.00;2.00;;;;;-143.90;77.11;73493.84;4986763;28;104201;-72
2023/09/22 05:11:07;;;;;;;;;1.00;1.00;;;;;-143.90;77.23;73489.72;4983139;28;102452;-73
2023/09/22 05:13:35;;;;;;;;;2.67;2.00;;;;;-143.90;76.84;73481.44;4977641;27;103476;-72
2023/09/22 05:16:10;;;;;;;;;4.00;3.00;;;;;-143.90;77.29;73477.31;4989509;27;102238;-72
2023/09/22 05:18:37;;;;;;;;;2.00;2.00;;;;;-143.90;76.51;73477.31;4987983;28;103987;-72
2023/09/22 05:21:05;;;;;;;;;2.00;2.00;;;;;-143.90;77.02;73466.97;4987067;27;102100;-72
2023/09/22 05:23:32;;;;;;;;;3.00;3.00;;;;;-143.90;76.58;73469.03;4988557;27;102937;-73
2023/09/22 05:26:04;;;;;;;;;1.00;1.00;;;;;-143.90;76.81;73460.78;4990694;28;102558;-72
2023/09/22 05:28:30;;;;;;;;;1.00;1.00;;;;;-143.90;77.26;73456.66;4988264;27;104217;-72
2023/09/22 05:30:57;;;;;;;;;2.00;2.00;;;;;-143.90;77.70;73454.59;4994434;28;102413;-72
2023/09/22 05:33:25;;;;;;;;;2.67;2.67;;;;;-143.90;77.29;73438.03;4991275;27;102233;-72
2023/09/22 05:35:51;;;;;;;;;2.00;2.00;;;;;-143.90;77.21;73444.25;4991235;28;102118;-72
2023/09/22 05:38:18;;;;;;;;;2.00;2.00;;;;;-143.90;77.29;73435.97;4989833;27;103595;-72
2023/09/22 05:40:45;;;;;;;;;3.67;3.33;;;;;-143.90;76.28;73419.44;4988011;27;103734;-72
2023/09/22 05:43:13;;;;;;;;;1.00;1.00;;;;;-143.90;76.74;73411.19;4990203;28;102673;-72
2023/09/22 05:45:43;;;;;;;;;1.33;1.00;;;;;-143.90;75.80;73402.91;4993907;28;102192;-72
2023/09/22 05:48:10;;;;;;;;;1.00;1.00;;;;;-143.90;76.05;73398.78;4989488;28;103227;-73
2023/09/22 05:50:36;;;;;;;;;1.33;1.00;;;;;-143.90;76.06;73388.44;4995615;27;102508;-71
2023/09/22 05:53:08;;;;;;;;;2.00;1.67;;;;;-143.90;75.85;73382.25;4984543;28;102515;-72
2023/09/22 05:55:34;;;;;;;;;1.33;1.00;;;;;-143.90;75.05;73369.84;4994092;28;102148;-71
2023/09/22 05:58:01;;;;;;;;;9.00;9.00;;;;;-143.90;74.55;73367.78;4987493;28;104132;-72
2023/09/22 06:00:31;;;;;;;;;5.33;5.00;;;;;-143.90;74.80;73361.59;4992726;27;102409;-72
2023/09/22 06:02:58;;;;;;;;;6.33;5.00;;;;;-143.90;74.45;73359.53;4988778;28;102279;-74
2023/09/22 06:05:27;;;;;;;;;7.00;6.67;;;;;-143.90;74.00;73347.13;4990941;27;102447;-72
2023/09/22 06:07:54;;;;;;;;;3.00;3.00;;;;;-143.90;73.66;73343.00;4992298;27;108004;-72
2023/09/22 06:10:22;;;;;;;;;5.67;5.67;;;;;-143.90;72.70;73336.78;4989249;27;102263;-72
2023/09/22 06:12:49;;;;;;;;;4.33;4.00;;;;;-143.90;72.61;73328.53;4990728;27;102276;-72
2023/09/22 06:15:16;;;;;;;;;4.00;3.33;;;;;-143.90;72.29;73322.31;4988152;27;103897;-73
2023/09/22 06:17:43;;;;;;;;;2.67;2.67;;;;;-143.90;72.62;73299.59;4990326;27;104306;-72
2023/09/22 06:20:15;;;;;;;;;4.00;4.00;;;;;-143.90;70.34;73274.81;4990463;27;102743;-73
2023/09/22 06:22:43;;;;;;;;;2.33;2.33;;;;;-143.90;70.11;73239.66;4989774;27;102168;-73
2023/09/22 06:25:13;;;;;;;;;4.00;3.00;;;;;-143.90;69.49;73210.75;4993357;28;102217;-73
2023/09/22 06:27:41;;;;;;;;;3.33;3.33;;;;;-143.90;69.28;73185.94;4992194;27;104034;-73
2023/09/22 06:30:11;;;;;;;;;5.00;4.67;;;;;-143.90;68.23;73173.53;4990570;27;102354;-73
2023/09/22 06:32:42;;;;;;;;;3.00;3.00;;;;;-143.90;68.37;73144.63;4993389;27;101946;-73
2023/09/22 06:35:10;;;;;;;;;3.67;3.67;;;;;-143.90;66.47;73121.88;4988068;27;102456;-72
2023/09/22 06:37:39;;;;;;;;;1.67;1.67;;;;;-143.90;67.03;73097.09;4988713;27;103878;-72
2023/09/22 06:40:11;;;;;;;;;5.33;5.33;;;;;-143.90;65.26;73080.56;4989894;28;102349;-72
2023/09/22 06:42:41;;;;;;;;;3.00;2.67;;;;;-143.90;64.72;73057.84;4989181;27;102505;-72
2023/09/22 06:45:12;;;;;;;;;2.67;1.67;;;;;-143.90;63.29;73030.97;4988279;27;102441;-73
2023/09/22 06:47:43;;;;;;;;;2.67;2.67;;;;;-143.90;62.88;73018.56;4989546;28;103994;-72
2023/09/22 06:50:11;;;;;;;;;3.00;2.00;;;;;-143.90;62.47;73024.78;4990829;28;102448;-72
2023/09/22 06:52:40;;;;;;;;;2.67;2.00;;;;;-143.90;63.07;73018.56;4984932;27;101874;-72
2023/09/22 06:55:13;;;;;;;;;1.33;1.33;;;;;-143.90;62.98;73018.56;4989064;27;102281;-73
2023/09/22 06:57:41;;;;;;;;;3.00;2.00;;;;;-143.90;62.97;73006.16;4985939;27;102841;-73
2023/09/22 07:00:15;;;;;;;;;1.33;1.33;;;;;-143.90;62.88;73004.09;4990825;27;103488;-72
2023/09/22 07:02:47;;;;;;;;;2.00;2.00;;;;;-143.90;62.47;73020.63;4986704;27;102382;-72
2023/09/22 07:05:15;;;;;;;;;1.67;1.67;;;;;-143.90;62.94;73030.97;4989020;27;102953;-72
2023/09/22 07:07:42;;;;;;;;;1.00;0.00;;;;;-143.90;63.34;73051.63;4989845;27;105128;-72
2023/09/22 07:10:12;;;;;;;;;0.67;0.67;;;;;-143.90;63.82;73059.91;4983744;28;102468;-72
2023/09/22 07:12:41;;;;;;;;;1.33;1.33;;;;;-143.90;63.93;73051.63;4987732;28;102553;-72
2023/09/22 07:15:10;;;;;;;;;1.33;1.33;;;;;-143.90;63.94;73037.16;4981432;28;102401;-72
2023/09/22 07:18:05;;;;;;;;;2.67;2.00;;;;;-143.90;64.23;73020.63;4975266;27;103610;-72
2023/09/22 07:20:32;;;;;;;;;0.67;0.67;;;;;-143.90;63.12;73018.56;4984647;28;102804;-71
2023/09/22 07:22:58;;;;;;;;;1.00;1.00;;;;;-143.90;63.03;73016.50;4986810;28;102061;-72
2023/09/22 07:25:26;;;;;;;;;2.00;2.00;;;;;-143.90;63.08;73030.97;4993571;27;102237;-73
2023/09/22 07:27:53;;;;;;;;;3.00;2.00;;;;;-143.90;62.91;73022.69;4989572;28;108596;-71
2023/09/22 07:30:20;;;;;;;;;2.33;1.67;;;;;-143.90;63.41;73004.09;4988266;27;102383;-73
2023/09/22 07:32:47;;;;;;;;;1.00;1.00;;;;;-143.90;61.43;72993.78;4987491;28;101911;-73
2023/09/22 07:35:14;;;;;;;;;2.67;2.00;;;;;-143.90;60.50;72975.19;4990192;28;101899;-72
2023/09/22 07:37:42;;;;;;;;;2.00;2.00;;;;;-143.90;61.96;72958.66;4983636;27;104510;-72
2023/09/22 07:40:09;;;;;;;;;1.33;1.33;;;;;-143.90;61.34;72950.38;4989972;27;102278;-72
2023/09/22 07:42:39;;;;;;;;;2.00;1.00;;;;;-143.90;59.81;72946.25;4987588;27;103536;-73
2023/09/22 07:45:07;;;;;;;;;1.00;1.00;;;;;-143.90;61.06;72948.31;4990162;27;102111;-73
2023/09/22 07:47:34;;;;;;;;;1.00;1.00;;;;;-143.90;59.93;72948.31;4986335;27;106018;-73
2023/09/22 07:50:02;;;;;;;;;2.33;2.00;;;;;-143.90;60.51;72931.78;4985933;28;103669;-73
2023/09/22 07:52:28;;;;;;;;;1.00;1.00;;;;;-143.90;60.49;72915.25;4985998;27;101960;-73
2023/09/22 07:54:56;;;;;;;;;0.33;0.33;;;;;-143.90;59.30;72882.19;4987026;27;102027;-71
2023/09/22 07:57:23;;;;;;;;;2.00;2.00;;;;;-143.90;60.70;72869.81;4985346;27;108571;-72
2023/09/22 07:59:50;;;;;;;;;1.00;1.00;;;;;-143.90;59.49;72840.88;4987522;28;102081;-73
2023/09/22 08:02:17;;;;;;;;;2.67;2.67;;;;;-143.90;59.38;72826.41;4987015;27;101804;-72
2023/09/22 08:04:44;;;;;;;;;2.00;1.33;;;;;-143.90;58.68;72801.63;4989964;27;102058;-71
2023/09/22 08:07:13;;;;;;;;;2.00;2.00;;;;;-143.90;57.55;72801.63;4987183;28;104357;-72
2023/09/22 08:09:40;;;;;;;;;3.00;3.00;;;;;-143.90;55.22;72814.00;4986048;28;102213;-72
2023/09/22 08:12:07;;;;;;;;;3.33;3.33;;;;;-143.90;56.13;72824.34;4978934;28;102014;-72
2023/09/22 08:14:35;;;;;;;;;3.67;3.33;;;;;-143.90;56.70;72840.88;4988209;28;102320;-72
2023/09/22 08:17:22;;;;;;;;;2.67;2.67;;;;;-143.90;57.99;72857.41;4984281;28;110118;-72
2023/09/22 08:19:49;;;;;;;;;3.00;3.00;;;;;-143.90;59.27;72873.94;4984925;27;102369;-73
2023/09/22 08:22:16;;;;;;;;;3.00;2.33;;;;;-143.90;58.05;72890.47;4987144;28;102067;-72
2023/09/22 08:24:43;;;;;;;;;4.00;3.00;;;;;-143.90;58.74;72904.94;4986931;28;101917;-73
2023/09/22 08:27:10;;;;;;;;;3.33;3.00;;;;;-143.90;60.65;72909.06;4987489;28;103965;-73
2023/09/22 08:29:37;;;;;;;;;2.00;1.00;;;;;-143.90;60.44;72927.66;4988542;27;102795;-72
2023/09/22 08:32:04;;;;;;;;;1.00;1.00;;;;;-143.90;61.06;72927.66;4989992;27;102338;-72
2023/09/22 08:34:38;;;;;;;;;3.00;3.00;;;;;-143.90;60.95;72923.53;4991179;27;101925;-72
2023/09/22 08:37:05;;;;;;;;;2.00;1.33;;;;;-143.90;60.88;72915.25;4985683;27;103996;-72
2023/09/22 08:39:32;;;;;;;;;2.00;2.00;;;;;-143.90;60.27;72911.13;4985622;28;102447;-71
2023/09/22 08:41:59;;;;;;;;;3.33;3.00;;;;;-143.90;60.75;72915.25;4980761;27;102892;-72
2023/09/22 08:44:26;;;;;;;;;4.00;3.00;;;;;-143.90;59.28;72940.06;4991479;28;102260;-72
2023/09/22 08:46:53;;;;;;;;;3.00;2.00;;;;;-143.90;60.26;72942.13;4986026;28;108819;-72
2023/09/22 08:49:23;;;;;;;;;2.00;2.00;;;;;-143.90;61.35;72938.00;4986702;28;102095;-73
2023/09/22 08:51:50;;;;;;;;;3.00;3.00;;;;;-143.90;60.32;72944.19;4993260;28;102696;-72
2023/09/22 08:54:18;;;;;;;;;3.00;2.67;;;;;-143.90;59.57;72919.38;4992960;28;106148;-72
2023/09/22 08:56:44;;;;;;;;;3.00;2.00;;;;;-143.90;60.68;72890.47;4985162;28;103399;-72
2023/09/22 08:59:12;;;;;;;;;5.67;4.00;;;;;-143.90;60.70;72878.06;4987367;27;102033;-72
2023/09/22 09:01:39;;;;;;;;;2.33;2.33;;;;;-143.90;59.18;72845.00;4989624;28;102331;-72
2023/09/22 09:04:30;;;;;;;;;5.00;4.33;;;;;-143.90;57.41;72816.06;4987145;27;101942;-71
2023/09/22 09:06:57;;;;;;;;;3.00;2.33;;;;;-143.90;59.04;72807.81;4988045;27;108415;-71
2023/09/22 09:09:24;;;;;;;;;3.67;3.00;;;;;-143.90;56.88;72791.28;4988028;28;102372;-73
2023/09/22 09:12:01;;;;;;;;;3.00;3.00;;;;;-143.90;58.13;72778.88;4986502;27;102186;-72
2023/09/22 09:14:28;;;;;;;;;4.00;4.00;;;;;-143.90;56.77;72778.88;4990984;27;102173;-72
2023/09/22 09:16:57;;;;;;;;;3.00;2.33;;;;;-143.90;56.38;72776.81;4992832;28;103317;-72
2023/09/22 09:19:26;;;;;;;;;3.33;2.67;;;;;-143.90;56.77;72762.34;4991513;27;101961;-72
2023/09/22 09:22:05;;;;;;;;;4.00;4.00;;;;;-143.90;55.78;72787.16;4995297;27;104604;-72
2023/09/22 09:24:35;;;;;;;;;2.33;2.33;;;;;-143.90;55.09;72797.47;4984207;27;102464;-72
2023/09/22 09:27:18;;;;;;;;;4.00;4.00;;;;;-143.90;56.12;72811.94;4987417;27;103460;-72
2023/09/22 09:29:50;;;;;;;;;3.67;3.33;;;;;-143.90;55.79;72828.47;4986496;27;102275;-73
2023/09/22 09:32:24;;;;;;;;;5.00;4.33;;;;;-143.90;57.43;72816.06;4987811;27;102147;-72
2023/09/22 09:34:52;;;;;;;;;3.00;3.00;;;;;-143.90;56.74;72793.34;4986526;28;102421;-73
2023/09/22 09:37:20;;;;;;;;;5.00;4.00;;;;;-143.90;55.95;72803.69;4984939;27;104677;-73
2023/09/22 09:39:56;;;;;;;;;3.67;3.67;;;;;-143.90;57.36;72795.41;4985976;28;102250;-72
2023/09/22 09:42:24;;;;;;;;;3.00;3.00;;;;;-143.90;58.14;72772.69;4985222;27;102298;-71
2023/09/22 09:44:57;;;;;;;;;2.00;2.00;;;;;-143.90;55.85;72778.88;4991766;27;102490;-72
2023/09/22 09:47:26;;;;;;;;;4.67;3.00;;;;;-143.90;56.58;72803.69;4981668;28;109833;-72
2023/09/22 09:49:58;;;;;;;;;3.67;3.33;;;;;-143.90;56.00;72797.47;4985884;28;101838;-72
2023/09/22 09:52:40;;;;;;;;;3.67;3.00;;;;;-143.90;56.48;72772.69;4990188;27;102322;-72
2023/09/22 09:55:10;;;;;;;;;4.33;3.00;;;;;-143.90;57.50;72747.91;4987017;27;102719;-72
2023/09/22 09:57:39;;;;;;;;;3.67;3.67;;;;;-143.90;58.45;72725.16;4987939;28;103951;-72
2023/09/22 10:00:15;;;;;;;;;2.67;2.67;;;;;-143.90;57.47;72692.09;4991191;27;103159;-72
2023/09/22 10:02:46;;;;;;;;;4.00;4.00;;;;;-143.90;55.02;72716.91;4987736;27;102137;-72
2023/09/22 10:05:18;;;;;;;;;3.00;3.00;;;;;-143.90;54.97;72721.03;4986850;28;102083;-72
2023/09/22 10:07:49;;;;;;;;;3.00;3.00;;;;;-143.90;55.99;72737.56;4984207;28;104248;-71
2023/09/22 10:10:19;;;;;;;;;2.33;2.00;;;;;-143.90;55.11;72743.75;4986983;27;102471;-72
2023/09/22 10:12:47;;;;;;;;;2.67;2.67;;;;;-143.90;54.93;72735.50;4987923;27;102420;-71
2023/09/22 10:15:15;;;;;;;;;5.00;4.00;;;;;-143.90;55.87;72749.97;4991180;28;102393;-72
2023/09/22 10:17:41;;;;;;;;;4.00;3.00;;;;;-143.90;55.94;72741.69;4990097;28;104499;-72
2023/09/22 10:20:13;;;;;;;;;3.00;3.00;;;;;-143.90;55.05;72727.25;4985181;28;105893;-72
2023/09/22 10:22:41;;;;;;;;;2.00;2.00;;;;;-143.90;54.76;72704.50;4988370;28;102126;-73
2023/09/22 10:25:13;;;;;;;;;4.67;3.33;;;;;-143.90;54.85;72694.19;4986110;27;102044;-72
2023/09/22 10:27:58;;;;;;;;;3.67;3.00;;;;;-143.90;52.83;72683.84;4986298;27;104054;-71
2023/09/22 10:30:45;;;;;;;;;2.67;2.00;;;;;-143.90;51.95;72675.59;4982734;27;102176;-71
2023/09/22 10:33:25;;;;;;;;;4.00;4.00;;;;;-143.90;54.44;72663.19;4982416;27;102018;-72
2023/09/22 10:35:53;;;;;;;;;4.00;3.00;;;;;-143.90;53.31;72657.00;4986230;27;103817;-71
2023/09/22 10:38:21;;;;;;;;;3.67;2.67;;;;;-143.90;53.84;72632.19;4993715;27;103217;-72
2023/09/22 10:41:01;;;;;;;;;4.00;4.00;;;;;-143.90;53.58;72634.25;4989169;28;104920;-72
2023/09/22 10:43:30;;;;;;;;;3.33;3.00;;;;;-143.90;53.46;72630.13;4988439;27;102047;-71
2023/09/22 10:45:57;;;;;;;;;2.00;1.33;;;;;-143.90;52.95;72617.72;4989363;27;102970;-72
2023/09/22 10:48:30;;;;;;;;;2.67;2.67;;;;;-143.90;52.78;72617.72;4989466;28;108508;-72
2023/09/22 10:50:57;;;;;;;;;3.67;3.00;;;;;-143.90;51.86;72609.47;4989354;27;102241;-73
2023/09/22 10:53:25;;;;;;;;;2.33;2.33;;;;;-143.90;52.08;72613.59;4984470;28;102074;-73
2023/09/22 10:55:57;;;;;;;;;5.00;4.00;;;;;-143.90;52.74;72626.00;4990503;28;102490;-71
2023/09/22 10:58:26;;;;;;;;;2.00;2.00;;;;;-143.90;52.24;72642.53;4986242;27;111387;-71
2023/09/22 11:00:57;;;;;;;;;3.33;1.67;;;;;-143.90;53.74;72642.53;4986823;27;102008;-72
2023/09/22 11:03:24;;;;;;;;;3.00;3.00;;;;;-143.90;52.88;72657.00;4983217;27;104362;-72
2023/09/22 11:06:02;;;;;;;;;3.33;3.00;;;;;-143.90;51.12;72669.38;4989473;27;102346;-71
2023/09/22 11:08:31;;;;;;;;;2.00;2.00;;;;;-143.90;52.09;72657.00;4986706;27;109504;-73
2023/09/22 11:10:59;;;;;;;;;2.00;2.00;;;;;-143.90;52.05;72646.66;4986464;28;102255;-72
2023/09/22 11:13:27;;;;;;;;;2.00;2.00;;;;;-143.90;51.12;72650.78;4989334;27;102422;-72
2023/09/22 11:16:01;;;;;;;;;5.00;4.33;;;;;-143.90;51.55;72671.44;4979930;27;102258;-73